Ship Status Report: callsign BAREU11

sailwx.info

Track history (hours):
 
Tides and Currents Weather Stations Pressure Air Temp Water Temp Dewpoint Dewpoint Depression Visibility Wind Speed Wind Dir Waves Ship Positions

Callsign BAREU11 (name unknown)

Last reported at 2014-Oct-30 16:00 UTC. Time now 2014-Oct-30 16:41 UTC.
Position N 29°12' W 056°30'.

Barometer 1019.0 mb

Date/timePositionNaut miles runAvg speedWind from/ knotsBaromVisibWave heightAir tempDewpointWater temp
2014-Oct-30 16:00N 29°12' W 056°30'1615.9 1019.0
2014-Oct-30 15:00N 29°24' W 056°18'2019.7 1019.8
2014-Oct-30 14:00N 29°36' W 056°00'2120.8 1020.3
2014-Oct-30 13:00N 29°54' W 055°48'2019.7 1020.6
2014-Oct-30 12:00N 30°06' W 055°30'1615.9 1020.8
2014-Oct-30 11:00N 30°18' W 055°18'2019.6 1020.6
2014-Oct-30 10:00N 30°30' W 055°00'2221.5 1020.4
2014-Oct-30 09:00N 30°36' W 054°36'2019.6 1020.1
2014-Oct-30 08:00N 30°48' W 054°18'1716.6 1020.1
2014-Oct-30 07:00N 30°54' W 054°00'2019.5 1020.1
2014-Oct-30 06:00N 31°06' W 053°42'1716.5 1020.2
2014-Oct-30 05:00N 31°12' W 053°24'2019.5 1020.5
2014-Oct-30 04:00N 31°24' W 053°06'1616.5 1021.0
2014-Oct-30 03:00N 31°30' W 052°48'1919.5 1021.2
2014-Oct-30 02:00N 31°42' W 052°30'1616.4 1021.6
2014-Oct-30 01:00N 31°48' W 052°12'1919.4 1021.9
2014-Oct-30 00:00N 32°00' W 051°54'1616.4 1021.7
2014-Oct-29 23:00N 32°06' W 051°36'1919.4 1021.4
2014-Oct-29 22:00N 32°18' W 051°18'3517.7 1021.2
2014-Oct-29 20:00N 32°36' W 050°42'1919.3 1019.7
2014-Oct-29 19:00N 32°48' W 050°24'1919.3 1019.3
2014-Oct-29 18:00N 33°00' W 050°06'1616.2 1018.4
2014-Oct-29 17:00N 33°06' W 049°48'1919.3 1017.9
2014-Oct-29 16:00N 33°18' W 049°30'1919.2 1018.1
2014-Oct-29 15:00N 33°30' W 049°12'1919.2 1018.2
2014-Oct-29 14:00N 33°42' W 048°54'1211.6 1017.9
2014-Oct-29 13:00N 33°48' W 048°42'2323.4 1017.3
2014-Oct-29 12:00N 34°06' W 048°24'1615.6 1017.3
2014-Oct-29 11:00N 34°18' W 048°12'3417.2 1016.6
2014-Oct-29 09:00N 34°42' W 047°42'3115.5 1015.0
2014-Oct-29 07:00N 35°06' W 047°18'3417.1 1013.7
2014-Oct-29 05:00N 35°30' W 046°48'1515.5 1013.1
2014-Oct-29 04:00N 35°42' W 046°36'1515.5 1012.5
2014-Oct-29 03:00N 35°54' W 046°24'2323.1 1012.4
2014-Oct-29 02:00N 36°12' W 046°06'1515.4 1012.0
2014-Oct-29 01:00N 36°24' W 045°54'3115.4 1012.1
2014-Oct-28 23:00N 36°48' W 045°30'1918.7 1010.8
2014-Oct-28 22:00N 37°00' W 045°12'1515.3 1010.2
2014-Oct-28 21:00N 37°12' W 045°00'3416.9 1009.7
2014-Oct-28 19:00N 37°36' W 044°30'1515.5 1008.4
2014-Oct-28 18:00N 37°42' W 044°12'1918.6 1008.2
2014-Oct-28 17:00N 37°54' W 043°54'1918.6 1008.2
2014-Oct-28 16:00N 38°06' W 043°36'1111.2 1008.1
2014-Oct-28 15:00N 38°12' W 043°24'1918.5 1008.1
2014-Oct-28 14:00N 38°24' W 043°06'3316.7 1008.5
2014-Oct-28 12:00N 38°42' W 042°30'1515.3 1007.1
2014-Oct-28 11:00N 38°48' W 042°12'1818.4 1005.6
2014-Oct-28 10:00N 39°00' W 041°54'2222.2 1007.3
2014-Oct-28 09:00N 39°12' W 041°30'1515.2 1007.3
2014-Oct-28 08:00N 39°24' W 041°18'1919.5 1008.3
2014-Oct-28 07:00N 39°30' W 040°54'1818.3 1008.7
2014-Oct-28 06:00N 39°42' W 040°36'1818.3 1009.0
2014-Oct-28 05:00N 39°54' W 040°18'1515.0 1009.3
2014-Oct-28 04:00N 40°00' W 040°00'1818.3 1009.3
2014-Oct-28 03:00N 40°12' W 039°42'1919.3 1009.4
2014-Oct-28 02:00N 40°18' W 039°18'1818.2 1008.6
2014-Oct-28 01:00N 40°30' W 039°00'1514.9 1008.5
2014-Oct-28 00:00N 40°36' W 038°42'1818.2 1008.3
2014-Oct-27 23:00N 40°48' W 038°24'1818.1 1007.7
2014-Oct-27 22:00N 41°00' W 038°06'1919.1 1007.7
2014-Oct-27 21:00N 41°06' W 037°42'1818.1 1006.5
2014-Oct-27 20:00N 41°18' W 037°24'1514.8 1006.4
2014-Oct-27 19:00N 41°24' W 037°06'1818.0 1006.4
2014-Oct-27 18:00N 41°36' W 036°48'1918.9 1007.4
2014-Oct-27 17:00N 41°42' W 036°24'1818.0 1009.2
2014-Oct-27 16:00N 41°54' W 036°06'1818.0 1009.9
2014-Oct-27 15:00N 42°06' W 035°48'1918.8 1010.6
2014-Oct-27 14:00N 42°12' W 035°24'1817.9 1011.9
2014-Oct-27 13:00N 42°24' W 035°06'1918.7 1012.6
2014-Oct-27 12:00N 42°30' W 034°42'2121.4 1012.3
2014-Oct-27 11:00N 42°42' W 034°18'3316.5 1011.6
2014-Oct-27 09:00N 42°54' W 033°36'2121.3 1009.4
2014-Oct-27 08:00N 43°06' W 033°12'1817.8 1008.7
2014-Oct-27 07:00N 43°18' W 032°54'1818.5 1007.7
2014-Oct-27 06:00N 43°24' W 032°30'1414.4 1007.0
2014-Oct-27 05:00N 43°30' W 032°12'2121.1 1005.9
2014-Oct-27 04:00N 43°42' W 031°48'1818.3 1005.9
2014-Oct-27 03:00N 43°48' W 031°24'2121.0 1005.2
2014-Oct-27 02:00N 44°00' W 031°00'1414.3 1004.8
2014-Oct-27 01:00N 44°06' W 030°42'2121.0 1004.3
2014-Oct-27 00:00N 44°18' W 030°18'1818.2 1003.6
2014-Oct-26 23:00N 44°24' W 029°54'1818.2 1003.5
2014-Oct-26 22:00N 44°30' W 029°30'1414.2 1003.0
2014-Oct-26 21:00N 44°36' W 029°12'2120.9 1002.4
2014-Oct-26 20:00N 44°48' W 028°48'1818.0 1002.3
2014-Oct-26 19:00N 44°54' W 028°24'1818.0 1002.2
2014-Oct-26 18:00N 45°00' W 028°00'1717.5 1002.2
2014-Oct-26 17:00N 45°12' W 027°42'1817.9 1002.5
2014-Oct-26 16:00N 45°18' W 027°18'1817.9 1003.0
2014-Oct-26 15:00N 45°24' W 026°54'2120.7 1004.7
2014-Oct-26 14:00N 45°36' W 026°30'1817.8 1006.5
2014-Oct-26 13:00N 45°42' W 026°06'3819.0 1007.8
2014-Oct-26 11:00N 46°00' W 025°18'1817.7 1009.7
2014-Oct-26 10:00N 46°06' W 024°54'1413.8 1010.3
2014-Oct-26 09:00N 46°12' W 024°36'1817.6 1010.7
2014-Oct-26 08:00N 46°18' W 024°12'1817.6 1010.6
2014-Oct-26 07:00N 46°24' W 023°48'1817.6 1011.4
2014-Oct-26 06:00N 46°30' W 023°24'1817.6 1011.8
2014-Oct-26 05:00N 46°36' W 023°00'1817.5 1012.5
2014-Oct-26 04:00N 46°42' W 022°36'1817.5 1013.1
2014-Oct-26 03:00N 46°48' W 022°12'1717.5 1014.3
2014-Oct-26 02:00N 46°54' W 021°48'1717.4 1015.3
2014-Oct-26 01:00N 47°00' W 021°24'1717.4 1016.4
2014-Oct-26 00:00N 47°06' W 021°00'3517.4 1017.0
2014-Oct-25 22:00N 47°18' W 020°12'2121.2 1017.9
2014-Oct-25 21:00N 47°24' W 019°42'1616.2 1018.1
2014-Oct-25 20:00N 47°24' W 019°18'2020.2 1018.8
2014-Oct-25 19:00N 47°36' W 018°54'1616.2 1018.9
2014-Oct-25 18:00N 47°36' W 018°30'1717.2 1018.8
2014-Oct-25 17:00N 47°42' W 018°06'3417.2 1018.7
2014-Oct-25 15:00N 47°54' W 017°18'1717.2 1019.0
2014-Oct-25 14:00N 48°00' W 016°54'1717.1 1019.3
2014-Oct-25 13:00N 48°06' W 016°30'2120.9 1019.7
2014-Oct-25 12:00N 48°12' W 016°00'1616.0 1020.1
2014-Oct-25 11:00N 48°12' W 015°36'1313.4 1020.3
2014-Oct-25 10:00N 48°18' W 015°18'2019.9 1020.0
2014-Oct-25 09:00N 48°30' W 014°54'1615.9 1019.8
2014-Oct-25 08:00N 48°30' W 014°30'3818.8 1018.8
2014-Oct-25 06:00N 48°42' W 013°36'1716.9 1017.9
2014-Oct-25 05:00N 48°48' W 013°12'1615.8 1018.0
2014-Oct-25 04:00N 48°48' W 012°48'3416.9 1017.7
2014-Oct-25 02:00N 49°00' W 012°00'1615.7 1018.2
2014-Oct-25 01:00N 49°00' W 011°36'1716.8 1018.4
2014-Oct-25 00:00N 49°06' W 011°12'1716.8 1018.8
2014-Oct-24 23:00N 49°12' W 010°48'1615.7 1018.9
2014-Oct-24 22:00N 49°12' W 010°24'1716.8 1018.9
2014-Oct-24 21:00N 49°18' W 010°00'3617.8 1018.6
2014-Oct-24 19:00N 49°24' W 009°06'1615.6 1017.9
2014-Oct-24 18:00N 49°24' W 008°42'1716.7 1017.3
2014-Oct-24 17:00N 49°30' W 008°18'1615.6 1016.5
2014-Oct-24 16:00N 49°30' W 007°54'1716.7 1016.1
2014-Oct-24 15:00N 49°36' W 007°30'1615.6 1016.2
2014-Oct-24 14:00N 49°36' W 007°06'1716.7 1015.9
2014-Oct-24 13:00N 49°42' W 006°42'1919.4 1016.3
2014-Oct-24 12:00N 49°42' W 006°12'1716.6 1015.8
2014-Oct-24 11:00N 49°48' W 005°48'1919.4 1015.7
2014-Oct-24 10:00N 49°48' W 005°18'1919.4 1015.7
2014-Oct-24 09:00N 49°48' W 004°48'2020.3 1015.4
2014-Oct-24 08:00N 49°54' W 004°18'1515.5 1015.3
2014-Oct-24 07:00N 49°54' W 003°54'1716.6 1015.1
2014-Oct-24 06:00N 50°00' W 003°30'1515.4 1015.1
2014-Oct-24 05:00N 50°00' W 003°06'2020.2 1015.5
2014-Oct-24 04:00N 50°06' W 002°36'1515.4 1016.1
2014-Oct-24 03:00N 50°06' W 002°12'2423.8 1016.5
2014-Oct-24 02:00N 50°12' W 001°36'4020.1 1016.9
2014-Oct-24 00:00N 50°24' W 000°36'1616.4 1017.0
2014-Oct-23 23:00N 50°30' W 000°12'1616.4 1017.4
2014-Oct-23 22:00N 50°36' E 000°12'1515.2 1017.9
2014-Oct-23 21:00N 50°36' E 000°36'1919.4 1018.6
2014-Oct-23 20:00N 50°48' E 001°00'1312.9 1018.9
2014-Oct-23 19:00N 50°54' E 001°18'2323.5 1018.8
2014-Oct-23 18:00N 51°12' E 001°42'1616.5 1018.8
2014-Oct-23 17:00N 51°24' E 002°00'1515.0 1018.5
2014-Oct-23 16:00N 51°24' E 002°24'1515.0 1018.9
2014-Oct-23 15:00N 51°24' E 002°48'1515.0 1019.7
2014-Oct-23 14:00N 51°24' E 003°12'1515.0 1020.7
2014-Oct-23 13:00N 51°24' E 003°36'1111.2 1021.5
2014-Oct-23 12:00N 51°24' E 003°54'7 7.5 1021.8
2014-Oct-23 11:00N 51°24' E 004°06'10 9.6 1022.7
2014-Oct-23 10:00N 51°18' E 004°18'0 0.0 1023.6
2014-Oct-22 19:00N 51°18' E 004°18'1312.7 1023.4
2014-Oct-22 18:00N 51°24' E 004°00'10 9.6 1023.1
2014-Oct-22 17:00N 51°18' E 003°48'10 9.6 1022.8
2014-Oct-22 16:00N 51°24' E 003°36'1111.2 1022.6
2014-Oct-22 15:00N 51°24' E 003°18'1515.0 1023.1
2014-Oct-22 14:00N 51°24' E 002°54'1111.2 1023.4
2014-Oct-22 13:00N 51°24' E 002°36'0 0.0 1023.1
2014-Oct-22 12:00N 51°24' E 002°36'0 0.0 1022.8
2014-Oct-22 04:00N 51°24' E 002°36'0 0.0 1019.1
2014-Oct-22 02:00N 51°24' E 002°36'0 0.0 1017.8
2014-Oct-21 23:00N 51°24' E 002°36'0 0.0 1015.4
2014-Oct-21 07:00N 51°24' E 002°36'10 9.6 1003.6
2014-Oct-21 06:00N 51°18' E 002°24'8 7.5 1004.4
2014-Oct-21 05:00N 51°18' E 002°12'2311.7 1005.4
2014-Oct-21 03:00N 51°36' E 001°48'13 6.3 1007.0
2014-Oct-21 01:00N 51°48' E 001°42'10 9.5 1009.4
2014-Oct-21 00:00N 51°42' E 001°30'1919.1 1010.9
2014-Oct-20 23:00N 51°30' E 001°06'1111.2 1011.9
2014-Oct-20 22:00N 51°30' E 000°48'11 5.6 1012.5
2014-Oct-20 20:00N 51°30' E 000°30'0 0.0 1013.9
2014-Oct-20 19:00N 51°30' E 000°30'   1014.4
Track history (hours):
 
Tides and Currents Weather Stations Pressure Air Temp Water Temp Dewpoint Dewpoint Depression Visibility Wind Speed Wind Dir Waves Ship Positions

Callsign BAREU11 (name unknown)

Last reported at 2014-Oct-30 16:00 UTC. Time now 2014-Oct-30 16:41 UTC.
Position N 29°12' W 056°30'.

Barometer 1019.0 mb

Date/timePositionNaut miles runAvg speedWind from/ knotsBaromVisibWave heightAir tempDewpointWater temp
2014-Oct-30 16:00N 29°12' W 056°30'1615.9 1019.0
2014-Oct-30 15:00N 29°24' W 056°18'2019.7 1019.8
2014-Oct-30 14:00N 29°36' W 056°00'2120.8 1020.3
2014-Oct-30 13:00N 29°54' W 055°48'2019.7 1020.6
2014-Oct-30 12:00N 30°06' W 055°30'1615.9 1020.8
2014-Oct-30 11:00N 30°18' W 055°18'2019.6 1020.6
2014-Oct-30 10:00N 30°30' W 055°00'2221.5 1020.4
2014-Oct-30 09:00N 30°36' W 054°36'2019.6 1020.1
2014-Oct-30 08:00N 30°48' W 054°18'1716.6 1020.1
2014-Oct-30 07:00N 30°54' W 054°00'2019.5 1020.1
2014-Oct-30 06:00N 31°06' W 053°42'1716.5 1020.2
2014-Oct-30 05:00N 31°12' W 053°24'2019.5 1020.5
2014-Oct-30 04:00N 31°24' W 053°06'1616.5 1021.0
2014-Oct-30 03:00N 31°30' W 052°48'1919.5 1021.2
2014-Oct-30 02:00N 31°42' W 052°30'1616.4 1021.6
2014-Oct-30 01:00N 31°48' W 052°12'1919.4 1021.9
2014-Oct-30 00:00N 32°00' W 051°54'1616.4 1021.7
2014-Oct-29 23:00N 32°06' W 051°36'1919.4 1021.4
2014-Oct-29 22:00N 32°18' W 051°18'3517.7 1021.2
2014-Oct-29 20:00N 32°36' W 050°42'1919.3 1019.7
2014-Oct-29 19:00N 32°48' W 050°24'1919.3 1019.3
2014-Oct-29 18:00N 33°00' W 050°06'1616.2 1018.4
2014-Oct-29 17:00N 33°06' W 049°48'1919.3 1017.9
2014-Oct-29 16:00N 33°18' W 049°30'1919.2 1018.1
2014-Oct-29 15:00N 33°30' W 049°12'1919.2 1018.2
2014-Oct-29 14:00N 33°42' W 048°54'1211.6 1017.9
2014-Oct-29 13:00N 33°48' W 048°42'2323.4 1017.3
2014-Oct-29 12:00N 34°06' W 048°24'1615.6 1017.3
2014-Oct-29 11:00N 34°18' W 048°12'3417.2 1016.6
2014-Oct-29 09:00N 34°42' W 047°42'3115.5 1015.0
2014-Oct-29 07:00N 35°06' W 047°18'3417.1 1013.7
2014-Oct-29 05:00N 35°30' W 046°48'1515.5 1013.1
2014-Oct-29 04:00N 35°42' W 046°36'1515.5 1012.5
2014-Oct-29 03:00N 35°54' W 046°24'2323.1 1012.4
2014-Oct-29 02:00N 36°12' W 046°06'1515.4 1012.0
2014-Oct-29 01:00N 36°24' W 045°54'3115.4 1012.1
2014-Oct-28 23:00N 36°48' W 045°30'1918.7 1010.8
2014-Oct-28 22:00N 37°00' W 045°12'1515.3 1010.2
2014-Oct-28 21:00N 37°12' W 045°00'3416.9 1009.7
2014-Oct-28 19:00N 37°36' W 044°30'1515.5 1008.4
2014-Oct-28 18:00N 37°42' W 044°12'1918.6 1008.2
2014-Oct-28 17:00N 37°54' W 043°54'1918.6 1008.2
2014-Oct-28 16:00N 38°06' W 043°36'1111.2 1008.1
2014-Oct-28 15:00N 38°12' W 043°24'1918.5 1008.1
2014-Oct-28 14:00N 38°24' W 043°06'3316.7 1008.5
2014-Oct-28 12:00N 38°42' W 042°30'1515.3 1007.1
2014-Oct-28 11:00N 38°48' W 042°12'1818.4 1005.6
2014-Oct-28 10:00N 39°00' W 041°54'2222.2 1007.3
2014-Oct-28 09:00N 39°12' W 041°30'1515.2 1007.3
2014-Oct-28 08:00N 39°24' W 041°18'1919.5 1008.3
2014-Oct-28 07:00N 39°30' W 040°54'1818.3 1008.7
2014-Oct-28 06:00N 39°42' W 040°36'1818.3 1009.0
2014-Oct-28 05:00N 39°54' W 040°18'1515.0 1009.3
2014-Oct-28 04:00N 40°00' W 040°00'1818.3 1009.3
2014-Oct-28 03:00N 40°12' W 039°42'1919.3 1009.4
2014-Oct-28 02:00N 40°18' W 039°18'1818.2 1008.6
2014-Oct-28 01:00N 40°30' W 039°00'1514.9 1008.5
2014-Oct-28 00:00N 40°36' W 038°42'1818.2 1008.3
2014-Oct-27 23:00N 40°48' W 038°24'1818.1 1007.7
2014-Oct-27 22:00N 41°00' W 038°06'1919.1 1007.7
2014-Oct-27 21:00N 41°06' W 037°42'1818.1 1006.5
2014-Oct-27 20:00N 41°18' W 037°24'1514.8 1006.4
2014-Oct-27 19:00N 41°24' W 037°06'1818.0 1006.4
2014-Oct-27 18:00N 41°36' W 036°48'1918.9 1007.4
2014-Oct-27 17:00N 41°42' W 036°24'1818.0 1009.2
2014-Oct-27 16:00N 41°54' W 036°06'1818.0 1009.9
2014-Oct-27 15:00N 42°06' W 035°48'1918.8 1010.6
2014-Oct-27 14:00N 42°12' W 035°24'1817.9 1011.9
2014-Oct-27 13:00N 42°24' W 035°06'1918.7 1012.6
2014-Oct-27 12:00N 42°30' W 034°42'2121.4 1012.3
2014-Oct-27 11:00N 42°42' W 034°18'3316.5 1011.6
2014-Oct-27 09:00N 42°54' W 033°36'2121.3 1009.4
2014-Oct-27 08:00N 43°06' W 033°12'1817.8 1008.7
2014-Oct-27 07:00N 43°18' W 032°54'1818.5 1007.7
2014-Oct-27 06:00N 43°24' W 032°30'1414.4 1007.0
2014-Oct-27 05:00N 43°30' W 032°12'2121.1 1005.9
2014-Oct-27 04:00N 43°42' W 031°48'1818.3 1005.9
2014-Oct-27 03:00N 43°48' W 031°24'2121.0 1005.2
2014-Oct-27 02:00N 44°00' W 031°00'1414.3 1004.8
2014-Oct-27 01:00N 44°06' W 030°42'2121.0 1004.3
2014-Oct-27 00:00N 44°18' W 030°18'1818.2 1003.6
2014-Oct-26 23:00N 44°24' W 029°54'1818.2 1003.5
2014-Oct-26 22:00N 44°30' W 029°30'1414.2 1003.0
2014-Oct-26 21:00N 44°36' W 029°12'2120.9 1002.4
2014-Oct-26 20:00N 44°48' W 028°48'1818.0 1002.3
2014-Oct-26 19:00N 44°54' W 028°24'1818.0 1002.2
2014-Oct-26 18:00N 45°00' W 028°00'1717.5 1002.2
2014-Oct-26 17:00N 45°12' W 027°42'1817.9 1002.5
2014-Oct-26 16:00N 45°18' W 027°18'1817.9 1003.0
2014-Oct-26 15:00N 45°24' W 026°54'2120.7 1004.7
2014-Oct-26 14:00N 45°36' W 026°30'1817.8 1006.5
2014-Oct-26 13:00N 45°42' W 026°06'3819.0 1007.8
2014-Oct-26 11:00N 46°00' W 025°18'1817.7 1009.7
2014-Oct-26 10:00N 46°06' W 024°54'1413.8 1010.3
2014-Oct-26 09:00N 46°12' W 024°36'1817.6 1010.7
2014-Oct-26 08:00N 46°18' W 024°12'1817.6 1010.6
2014-Oct-26 07:00N 46°24' W 023°48'1817.6 1011.4
2014-Oct-26 06:00N 46°30' W 023°24'1817.6 1011.8
2014-Oct-26 05:00N 46°36' W 023°00'1817.5 1012.5
2014-Oct-26 04:00N 46°42' W 022°36'1817.5 1013.1
2014-Oct-26 03:00N 46°48' W 022°12'1717.5 1014.3
2014-Oct-26 02:00N 46°54' W 021°48'1717.4 1015.3
2014-Oct-26 01:00N 47°00' W 021°24'1717.4 1016.4
2014-Oct-26 00:00N 47°06' W 021°00'3517.4 1017.0
2014-Oct-25 22:00N 47°18' W 020°12'2121.2 1017.9
2014-Oct-25 21:00N 47°24' W 019°42'1616.2 1018.1
2014-Oct-25 20:00N 47°24' W 019°18'2020.2 1018.8
2014-Oct-25 19:00N 47°36' W 018°54'1616.2 1018.9
2014-Oct-25 18:00N 47°36' W 018°30'1717.2 1018.8
2014-Oct-25 17:00N 47°42' W 018°06'3417.2 1018.7
2014-Oct-25 15:00N 47°54' W 017°18'1717.2 1019.0
2014-Oct-25 14:00N 48°00' W 016°54'1717.1 1019.3
2014-Oct-25 13:00N 48°06' W 016°30'2120.9 1019.7
2014-Oct-25 12:00N 48°12' W 016°00'1616.0 1020.1
2014-Oct-25 11:00N 48°12' W 015°36'1313.4 1020.3
2014-Oct-25 10:00N 48°18' W 015°18'2019.9 1020.0
2014-Oct-25 09:00N 48°30' W 014°54'1615.9 1019.8
2014-Oct-25 08:00N 48°30' W 014°30'3818.8 1018.8
2014-Oct-25 06:00N 48°42' W 013°36'1716.9 1017.9
2014-Oct-25 05:00N 48°48' W 013°12'1615.8 1018.0
2014-Oct-25 04:00N 48°48' W 012°48'3416.9 1017.7
2014-Oct-25 02:00N 49°00' W 012°00'1615.7 1018.2
2014-Oct-25 01:00N 49°00' W 011°36'1716.8 1018.4
2014-Oct-25 00:00N 49°06' W 011°12'1716.8 1018.8
2014-Oct-24 23:00N 49°12' W 010°48'1615.7 1018.9
2014-Oct-24 22:00N 49°12' W 010°24'1716.8 1018.9
2014-Oct-24 21:00N 49°18' W 010°00'3617.8 1018.6
2014-Oct-24 19:00N 49°24' W 009°06'1615.6 1017.9
2014-Oct-24 18:00N 49°24' W 008°42'1716.7 1017.3
2014-Oct-24 17:00N 49°30' W 008°18'1615.6 1016.5
2014-Oct-24 16:00N 49°30' W 007°54'1716.7 1016.1
2014-Oct-24 15:00N 49°36' W 007°30'1615.6 1016.2
2014-Oct-24 14:00N 49°36' W 007°06'1716.7 1015.9
2014-Oct-24 13:00N 49°42' W 006°42'1919.4 1016.3
2014-Oct-24 12:00N 49°42' W 006°12'1716.6 1015.8
2014-Oct-24 11:00N 49°48' W 005°48'1919.4 1015.7
2014-Oct-24 10:00N 49°48' W 005°18'1919.4 1015.7
2014-Oct-24 09:00N 49°48' W 004°48'2020.3 1015.4
2014-Oct-24 08:00N 49°54' W 004°18'1515.5 1015.3
2014-Oct-24 07:00N 49°54' W 003°54'1716.6 1015.1
2014-Oct-24 06:00N 50°00' W 003°30'1515.4 1015.1
2014-Oct-24 05:00N 50°00' W 003°06'2020.2 1015.5
2014-Oct-24 04:00N 50°06' W 002°36'1515.4 1016.1
2014-Oct-24 03:00N 50°06' W 002°12'2423.8 1016.5
2014-Oct-24 02:00N 50°12' W 001°36'4020.1 1016.9
2014-Oct-24 00:00N 50°24' W 000°36'1616.4 1017.0
2014-Oct-23 23:00N 50°30' W 000°12'1616.4 1017.4
2014-Oct-23 22:00N 50°36' E 000°12'1515.2 1017.9
2014-Oct-23 21:00N 50°36' E 000°36'1919.4 1018.6
2014-Oct-23 20:00N 50°48' E 001°00'1312.9 1018.9
2014-Oct-23 19:00N 50°54' E 001°18'2323.5 1018.8
2014-Oct-23 18:00N 51°12' E 001°42'1616.5 1018.8
2014-Oct-23 17:00N 51°24' E 002°00'1515.0 1018.5
2014-Oct-23 16:00N 51°24' E 002°24'1515.0 1018.9
2014-Oct-23 15:00N 51°24' E 002°48'1515.0 1019.7
2014-Oct-23 14:00N 51°24' E 003°12'1515.0 1020.7
2014-Oct-23 13:00N 51°24' E 003°36'1111.2 1021.5
2014-Oct-23 12:00N 51°24' E 003°54'7 7.5 1021.8
2014-Oct-23 11:00N 51°24' E 004°06'10 9.6 1022.7
2014-Oct-23 10:00N 51°18' E 004°18'0 0.0 1023.6
2014-Oct-22 19:00N 51°18' E 004°18'1312.7 1023.4
2014-Oct-22 18:00N 51°24' E 004°00'10 9.6 1023.1
2014-Oct-22 17:00N 51°18' E 003°48'10 9.6 1022.8
2014-Oct-22 16:00N 51°24' E 003°36'1111.2 1022.6
2014-Oct-22 15:00N 51°24' E 003°18'1515.0 1023.1
2014-Oct-22 14:00N 51°24' E 002°54'1111.2 1023.4
2014-Oct-22 13:00N 51°24' E 002°36'0 0.0 1023.1
2014-Oct-22 12:00N 51°24' E 002°36'0 0.0 1022.8
2014-Oct-22 04:00N 51°24' E 002°36'0 0.0 1019.1
2014-Oct-22 02:00N 51°24' E 002°36'0 0.0 1017.8
2014-Oct-21 23:00N 51°24' E 002°36'0 0.0 1015.4
2014-Oct-21 07:00N 51°24' E 002°36'10 9.6 1003.6
2014-Oct-21 06:00N 51°18' E 002°24'8 7.5 1004.4
2014-Oct-21 05:00N 51°18' E 002°12'2311.7 1005.4
2014-Oct-21 03:00N 51°36' E 001°48'13 6.3 1007.0
2014-Oct-21 01:00N 51°48' E 001°42'10 9.5 1009.4
2014-Oct-21 00:00N 51°42' E 001°30'1919.1 1010.9
2014-Oct-20 23:00N 51°30' E 001°06'1111.2 1011.9
2014-Oct-20 22:00N 51°30' E 000°48'11 5.6 1012.5
2014-Oct-20 20:00N 51°30' E 000°30'0 0.0 1013.9
2014-Oct-20 19:00N 51°30' E 000°30'   1014.4

Dump ship's entire track history